createdAt,value
2019-03-18T00:01:56.034Z,4.90
2019-03-18T00:04:17.318Z,5.00
2019-03-18T00:06:46.065Z,4.90
2019-03-18T00:09:07.512Z,4.90
2019-03-18T00:11:29.745Z,5.00
2019-03-18T00:13:51.021Z,4.90
2019-03-18T00:16:12.375Z,4.90
2019-03-18T00:18:33.657Z,4.90
2019-03-18T00:20:54.972Z,4.90
2019-03-18T00:23:16.159Z,4.80
2019-03-18T00:25:37.363Z,4.80
2019-03-18T00:27:58.570Z,4.80
2019-03-18T00:30:20.262Z,4.80
2019-03-18T00:32:41.459Z,4.80
2019-03-18T00:35:03.757Z,4.80
2019-03-18T00:37:24.975Z,4.90
2019-03-18T00:39:46.186Z,4.90
2019-03-18T00:42:07.500Z,5.00
2019-03-18T00:44:28.690Z,5.00
2019-03-18T00:46:50.014Z,5.00
2019-03-18T00:49:11.210Z,4.90
2019-03-18T00:51:32.414Z,4.90
2019-03-18T00:53:53.606Z,4.90
2019-03-18T00:56:14.797Z,4.90
2019-03-18T00:58:36.029Z,4.90
2019-03-18T01:00:57.647Z,4.90
2019-03-18T01:03:18.886Z,5.00
2019-03-18T01:05:40.159Z,5.00
2019-03-18T01:08:01.567Z,5.00
2019-03-18T01:10:22.762Z,5.00
2019-03-18T01:12:44.187Z,5.00
2019-03-18T01:15:07.787Z,5.00
2019-03-18T01:17:29.273Z,5.00
2019-03-18T01:19:50.467Z,5.00
2019-03-18T01:22:11.693Z,5.00
2019-03-18T01:24:32.888Z,5.00
2019-03-18T01:26:54.185Z,5.10
2019-03-18T01:29:15.538Z,5.20
2019-03-18T01:31:36.846Z,5.20
2019-03-18T01:33:58.034Z,5.20
2019-03-18T01:36:19.239Z,5.20
2019-03-18T01:38:40.435Z,5.20
2019-03-18T01:41:01.828Z,5.20
2019-03-18T01:43:23.424Z,5.20
2019-03-18T01:45:44.732Z,5.20
2019-03-18T01:48:06.027Z,5.30
2019-03-18T01:50:27.224Z,5.30
2019-03-18T01:52:48.433Z,5.20
2019-03-18T01:55:10.130Z,5.20
2019-03-18T01:57:31.618Z,5.10
2019-03-18T01:59:54.118Z,5.10
2019-03-18T02:02:15.305Z,5.10
2019-03-18T02:04:36.513Z,5.10
2019-03-18T02:06:57.781Z,5.00
2019-03-18T02:09:18.975Z,5.00
2019-03-18T02:11:40.174Z,5.00
2019-03-18T02:14:01.395Z,4.90
2019-03-18T02:16:23.595Z,4.90
2019-03-18T02:18:44.799Z,4.90
2019-03-18T02:21:06.240Z,4.90
2019-03-18T02:23:27.437Z,4.90
2019-03-18T02:25:48.637Z,5.00
2019-03-18T02:28:09.854Z,4.90
2019-03-18T02:30:33.791Z,4.90
2019-03-18T02:32:55.331Z,4.90
2019-03-18T02:35:16.746Z,4.90
2019-03-18T02:37:38.330Z,4.90
2019-03-18T02:39:59.515Z,5.00
2019-03-18T02:42:20.714Z,5.00
2019-03-18T02:44:42.999Z,5.00
2019-03-18T02:47:04.203Z,5.10
2019-03-18T02:49:25.409Z,5.00
2019-03-18T02:51:46.607Z,5.10
2019-03-18T02:54:07.804Z,5.10
2019-03-18T02:56:29.322Z,5.20
2019-03-18T02:58:50.676Z,5.20
2019-03-18T03:01:11.877Z,5.20
2019-03-18T03:03:36.613Z,5.20
2019-03-18T03:05:56.175Z,5.20
2019-03-18T03:08:17.387Z,5.20
2019-03-18T03:10:38.668Z,5.20
2019-03-18T03:12:59.962Z,5.30
2019-03-18T03:15:21.250Z,5.30
2019-03-18T03:17:42.467Z,5.30
2019-03-18T03:20:05.966Z,5.30
2019-03-18T03:22:27.158Z,5.20
2019-03-18T03:24:48.358Z,5.30
2019-03-18T03:27:09.552Z,5.20
2019-03-18T03:29:30.774Z,5.20
2019-03-18T03:31:51.965Z,5.10
2019-03-18T03:34:14.305Z,5.00
2019-03-18T03:36:36.124Z,4.90
2019-03-18T03:38:57.385Z,4.90
2019-03-18T03:41:18.824Z,4.90
2019-03-18T03:43:41.490Z,4.90
2019-03-18T03:46:02.762Z,4.80
2019-03-18T03:48:23.965Z,4.80
2019-03-18T03:50:45.152Z,4.80
2019-03-18T03:53:06.369Z,4.80
2019-03-18T03:55:27.561Z,4.70
2019-03-18T03:57:49.052Z,4.70
2019-03-18T04:00:12.329Z,4.70
2019-03-18T04:02:33.518Z,4.70
2019-03-18T04:04:54.710Z,4.70
2019-03-18T04:07:15.902Z,4.80
2019-03-18T04:09:37.119Z,4.80
2019-03-18T04:11:58.429Z,4.80
2019-03-18T04:14:19.625Z,4.90
2019-03-18T04:16:43.960Z,5.00
2019-03-18T04:19:03.901Z,5.00
2019-03-18T04:21:25.121Z,5.00
2019-03-18T04:23:46.375Z,5.00
2019-03-18T04:26:07.562Z,5.10
2019-03-18T04:28:28.778Z,5.00
2019-03-18T04:30:49.959Z,5.00
2019-03-18T04:33:11.175Z,5.00
2019-03-18T04:35:32.382Z,5.00
2019-03-18T04:37:53.585Z,5.10
2019-03-18T04:40:14.807Z,5.00
2019-03-18T04:42:37.318Z,4.90
2019-03-18T04:44:58.513Z,4.80
2019-03-18T04:47:20.527Z,4.90
2019-03-18T04:49:41.740Z,4.80
2019-03-18T04:52:15.190Z,5.00
2019-03-18T04:54:36.397Z,4.80
2019-03-18T04:56:57.582Z,4.80
2019-03-18T04:59:18.806Z,4.80
2019-03-18T05:01:39.993Z,4.80
2019-03-18T05:04:01.189Z,4.80
2019-03-18T05:06:22.365Z,4.80
2019-03-18T05:08:43.577Z,4.90
2019-03-18T05:11:04.788Z,4.90
2019-03-18T05:13:26.619Z,4.90
2019-03-18T05:15:48.115Z,4.90
2019-03-18T05:18:09.311Z,4.90
2019-03-18T05:20:30.517Z,4.90
2019-03-18T05:22:51.710Z,4.90
2019-03-18T05:25:12.906Z,4.90
2019-03-18T05:27:34.099Z,4.80
2019-03-18T05:29:55.313Z,4.80
2019-03-18T05:32:16.595Z,4.80
2019-03-18T05:34:38.371Z,4.80
2019-03-18T05:36:59.553Z,4.80
2019-03-18T05:39:20.786Z,4.80
2019-03-18T05:41:41.965Z,4.80
2019-03-18T05:44:03.187Z,4.80
2019-03-18T05:46:24.520Z,4.80
2019-03-18T05:48:45.733Z,4.90
2019-03-18T05:51:07.014Z,4.90
2019-03-18T05:53:28.195Z,4.90
2019-03-18T05:55:49.400Z,5.00
2019-03-18T05:58:10.594Z,5.00
2019-03-18T06:00:31.825Z,5.00
2019-03-18T06:02:53.017Z,5.00
2019-03-18T06:05:14.223Z,5.10
2019-03-18T06:07:35.513Z,5.20
2019-03-18T06:09:56.709Z,5.20
2019-03-18T06:12:17.889Z,5.20
2019-03-18T06:14:39.099Z,5.20
2019-03-18T06:17:00.345Z,5.20
2019-03-18T06:19:21.541Z,5.20
2019-03-18T06:21:42.761Z,5.30
2019-03-18T06:24:06.421Z,5.40
2019-03-18T06:26:28.146Z,5.40
2019-03-18T06:28:49.360Z,5.50
2019-03-18T06:31:10.573Z,5.60
2019-03-18T06:33:31.965Z,5.70
2019-03-18T06:35:53.201Z,5.70
2019-03-18T06:38:14.385Z,5.70
2019-03-18T06:40:35.606Z,5.70
2019-03-18T06:42:56.801Z,5.80
2019-03-18T06:45:18.012Z,5.80
2019-03-18T06:47:50.912Z,5.80
2019-03-18T06:50:12.318Z,5.90
2019-03-18T06:52:33.628Z,6.00
2019-03-18T06:54:55.301Z,5.90
2019-03-18T06:57:16.550Z,6.00
2019-03-18T06:59:38.085Z,6.00
2019-03-18T07:01:59.292Z,6.00
2019-03-18T07:04:20.700Z,6.00
2019-03-18T07:06:42.063Z,6.10
2019-03-18T07:09:04.854Z,6.10
2019-03-18T07:11:26.043Z,6.00
2019-03-18T07:13:47.273Z,6.20
2019-03-18T07:16:08.486Z,6.10
2019-03-18T07:18:29.811Z,6.10
2019-03-18T07:20:51.161Z,6.10
2019-03-18T07:23:12.433Z,6.10
2019-03-18T07:25:33.667Z,6.10
2019-03-18T07:27:55.082Z,6.10
2019-03-18T07:30:16.580Z,6.20
2019-03-18T07:32:38.093Z,6.20
2019-03-18T07:34:59.278Z,6.40
2019-03-18T07:37:20.492Z,6.50
2019-03-18T07:39:41.951Z,6.60
2019-03-18T07:42:03.418Z,6.50
2019-03-18T07:44:24.598Z,6.60
2019-03-18T07:46:45.792Z,6.70
2019-03-18T07:49:06.979Z,6.80
2019-03-18T07:51:28.178Z,6.90
2019-03-18T07:53:49.372Z,7.00
2019-03-18T07:56:10.567Z,7.00
2019-03-18T07:58:31.754Z,7.10
2019-03-18T08:00:53.044Z,7.20
2019-03-18T08:03:14.446Z,7.30
2019-03-18T08:05:35.661Z,7.30
2019-03-18T08:07:56.866Z,7.50
2019-03-18T08:10:18.386Z,7.70
2019-03-18T08:12:39.582Z,7.80
2019-03-18T08:15:00.802Z,7.80
2019-03-18T08:17:22.024Z,7.40
2019-03-18T08:19:43.232Z,7.40
2019-03-18T08:22:04.429Z,7.40
2019-03-18T08:24:25.642Z,7.20
2019-03-18T08:26:47.013Z,7.30
2019-03-18T08:29:08.318Z,7.30
2019-03-18T08:31:29.605Z,7.10
2019-03-18T08:33:50.800Z,7.20
2019-03-18T08:36:12.037Z,7.50
2019-03-18T08:38:33.312Z,7.60
2019-03-18T08:40:54.497Z,7.80
2019-03-18T08:43:15.723Z,7.90
2019-03-18T08:45:37.057Z,8.10
2019-03-18T08:47:58.281Z,8.20
2019-03-18T08:50:19.525Z,8.30
2019-03-18T08:52:40.752Z,8.50
2019-03-18T08:55:02.541Z,8.50
2019-03-18T08:57:23.738Z,8.40
2019-03-18T08:59:44.982Z,8.40
2019-03-18T09:02:06.296Z,8.40
2019-03-18T09:04:27.478Z,8.40
2019-03-18T09:06:48.697Z,8.10
2019-03-18T09:09:09.933Z,8.30
2019-03-18T09:11:31.140Z,8.30
2019-03-18T09:13:52.345Z,8.50
2019-03-18T09:16:13.538Z,8.50
2019-03-18T09:18:34.771Z,8.70
2019-03-18T09:20:55.960Z,8.70
2019-03-18T09:23:17.169Z,8.50
2019-03-18T09:25:39.446Z,8.60
2019-03-18T09:28:00.655Z,9.10
2019-03-18T09:30:21.859Z,9.60
2019-03-18T09:32:43.058Z,9.40
2019-03-18T09:35:05.156Z,9.20
2019-03-18T09:37:26.345Z,9.10
2019-03-18T09:39:47.529Z,9.00
2019-03-18T09:42:08.747Z,9.00
2019-03-18T09:44:30.026Z,9.40
2019-03-18T09:46:51.224Z,9.40
2019-03-18T09:49:21.408Z,9.10
2019-03-18T09:51:35.510Z,9.20
2019-03-18T09:53:56.714Z,9.20
2019-03-18T09:56:17.940Z,9.10
2019-03-18T09:58:39.162Z,9.00
2019-03-18T10:01:00.375Z,9.40
2019-03-18T10:03:21.604Z,9.60
2019-03-18T10:05:44.129Z,9.50
2019-03-18T10:08:05.411Z,9.70
2019-03-18T10:10:26.634Z,9.40
2019-03-18T10:12:47.875Z,9.50
2019-03-18T10:15:17.022Z,9.70
2019-03-18T10:17:38.246Z,9.60
2019-03-18T10:20:00.746Z,9.40
2019-03-18T10:22:21.943Z,9.20
2019-03-18T10:24:43.234Z,9.10
2019-03-18T10:27:04.430Z,9.40
2019-03-18T10:29:25.625Z,9.70
2019-03-18T10:31:46.829Z,9.90
2019-03-18T10:34:08.029Z,10.00
2019-03-18T10:36:29.230Z,10.00
2019-03-18T10:38:52.602Z,9.80
2019-03-18T10:41:13.530Z,9.70
2019-03-18T10:43:34.735Z,9.50
2019-03-18T10:45:55.975Z,9.60
2019-03-18T10:48:17.239Z,9.50
2019-03-18T10:50:38.433Z,9.80
2019-03-18T10:52:59.641Z,9.90
2019-03-18T10:55:20.833Z,10.20
2019-03-18T10:57:42.088Z,10.30
2019-03-18T11:00:16.395Z,10.20
2019-03-18T11:02:38.817Z,10.00
2019-03-18T11:05:00.042Z,9.80
2019-03-18T11:07:21.222Z,9.80
2019-03-18T11:09:42.424Z,9.90
2019-03-18T11:12:03.814Z,9.60
2019-03-18T11:14:25.027Z,9.70
2019-03-18T11:16:46.223Z,9.70
2019-03-18T11:19:07.511Z,9.80
2019-03-18T11:21:28.703Z,9.80
2019-03-18T11:23:49.899Z,10.10
2019-03-18T11:26:11.106Z,10.00
2019-03-18T11:28:32.321Z,10.10
2019-03-18T11:30:53.523Z,10.20
2019-03-18T11:33:14.786Z,10.30
2019-03-18T11:35:35.993Z,10.00
2019-03-18T11:37:57.203Z,9.80
2019-03-18T11:40:20.189Z,10.10
2019-03-18T11:42:41.602Z,10.60
2019-03-18T11:45:08.138Z,10.80
2019-03-18T11:47:29.726Z,10.70
2019-03-18T11:49:51.042Z,11.00
2019-03-18T11:52:12.226Z,11.60
2019-03-18T11:54:33.569Z,11.60
2019-03-18T11:56:54.926Z,11.10
2019-03-18T11:59:16.136Z,11.10
2019-03-18T12:01:37.386Z,11.10
2019-03-18T12:03:58.581Z,10.80
2019-03-18T12:06:19.886Z,10.90
2019-03-18T12:08:41.077Z,11.40
2019-03-18T12:11:02.413Z,11.80
2019-03-18T12:13:25.041Z,12.10
2019-03-18T12:15:46.294Z,11.90
2019-03-18T12:18:07.483Z,11.60
2019-03-18T12:20:28.690Z,10.80
2019-03-18T12:22:50.093Z,10.80
2019-03-18T12:25:11.834Z,10.50
2019-03-18T12:27:33.025Z,10.90
2019-03-18T12:29:54.262Z,10.90
2019-03-18T12:32:15.540Z,10.80
2019-03-18T12:34:36.852Z,10.80
2019-03-18T12:36:58.042Z,11.10
2019-03-18T12:39:19.254Z,11.40
2019-03-18T12:41:40.460Z,11.90
2019-03-18T12:44:01.660Z,11.70
2019-03-18T12:46:22.867Z,11.70
2019-03-18T12:48:44.185Z,10.80
2019-03-18T12:51:05.442Z,10.70
2019-03-18T12:53:26.647Z,11.00
2019-03-18T12:55:47.857Z,10.90
2019-03-18T12:58:09.072Z,10.30
2019-03-18T13:00:32.775Z,9.90
2019-03-18T13:02:54.069Z,9.90
2019-03-18T13:05:15.486Z,10.30
2019-03-18T13:07:37.189Z,10.60
2019-03-18T13:09:58.480Z,10.60
2019-03-18T13:12:19.745Z,10.50
2019-03-18T13:14:40.979Z,10.50
2019-03-18T13:17:02.199Z,10.80
2019-03-18T13:19:23.793Z,11.10
2019-03-18T13:21:45.150Z,11.30
2019-03-18T13:24:06.421Z,11.60
2019-03-18T13:26:27.655Z,11.50
2019-03-18T13:28:48.836Z,11.00
2019-03-18T13:31:10.088Z,10.90
2019-03-18T13:33:31.385Z,11.00
2019-03-18T13:35:52.584Z,11.00
2019-03-18T13:38:13.818Z,11.30
2019-03-18T13:40:35.038Z,11.40
2019-03-18T13:42:56.231Z,11.40
2019-03-18T13:45:20.258Z,11.10
2019-03-18T13:47:42.690Z,10.70
2019-03-18T13:50:10.336Z,10.30
2019-03-18T13:52:32.811Z,9.80
2019-03-18T13:54:54.048Z,9.10
2019-03-18T13:57:15.473Z,8.90
2019-03-18T13:59:36.740Z,8.60
2019-03-18T14:01:58.046Z,8.70
2019-03-18T14:04:19.233Z,8.80
2019-03-18T14:06:40.454Z,8.90
2019-03-18T14:09:01.775Z,8.70
2019-03-18T14:11:24.894Z,8.80
2019-03-18T14:13:46.180Z,8.80
2019-03-18T14:16:07.405Z,8.60
2019-03-18T14:18:28.613Z,8.60
2019-03-18T14:20:49.825Z,8.40
2019-03-18T14:23:11.025Z,8.30
2019-03-18T14:25:32.306Z,8.40
2019-03-18T14:27:53.514Z,8.50
2019-03-18T14:30:19.069Z,8.40
2019-03-18T14:32:40.284Z,8.50
2019-03-18T14:35:01.680Z,8.70
2019-03-18T14:37:22.905Z,9.00
2019-03-18T14:39:44.087Z,9.20
2019-03-18T14:42:05.299Z,9.30
2019-03-18T14:44:26.502Z,9.70
2019-03-18T14:46:47.710Z,9.80
2019-03-18T14:49:08.889Z,9.80
2019-03-18T14:51:30.159Z,9.80
2019-03-18T14:53:51.337Z,9.70
2019-03-18T14:56:12.576Z,9.60
2019-03-18T14:58:33.774Z,9.60
2019-03-18T15:00:54.979Z,9.70
2019-03-18T15:03:16.195Z,9.90
2019-03-18T15:05:37.381Z,10.00
2019-03-18T15:07:58.585Z,10.10
2019-03-18T15:10:21.666Z,10.10
2019-03-18T15:12:42.876Z,10.10
2019-03-18T15:15:07.385Z,10.20
2019-03-18T15:17:28.889Z,10.30
2019-03-18T15:19:50.089Z,10.40
2019-03-18T15:22:11.336Z,10.40
2019-03-18T15:24:32.712Z,10.40
2019-03-18T15:26:53.910Z,10.40
2019-03-18T15:29:15.111Z,10.50
2019-03-18T15:31:36.341Z,10.50
2019-03-18T15:33:57.874Z,10.60
2019-03-18T15:36:19.074Z,10.60
2019-03-18T15:38:40.292Z,10.40
2019-03-18T15:41:01.484Z,10.30
2019-03-18T15:43:22.673Z,10.30
2019-03-18T15:45:43.878Z,9.90
2019-03-18T15:48:05.097Z,9.50
2019-03-18T15:50:26.474Z,9.30
2019-03-18T15:52:47.675Z,9.10
2019-03-18T15:55:10.073Z,9.10
2019-03-18T15:57:31.284Z,8.80
2019-03-18T15:59:52.475Z,8.80
2019-03-18T16:02:13.677Z,8.70
2019-03-18T16:04:34.912Z,8.70
2019-03-18T16:06:56.197Z,9.10
2019-03-18T16:09:17.410Z,9.40
2019-03-18T16:11:38.706Z,9.40
2019-03-18T16:13:59.905Z,9.50
2019-03-18T16:16:21.113Z,9.60
2019-03-18T16:18:42.332Z,9.70
2019-03-18T16:21:03.553Z,10.00
2019-03-18T16:23:24.794Z,10.30
2019-03-18T16:25:46.018Z,10.30
2019-03-18T16:28:07.223Z,10.20
2019-03-18T16:30:28.430Z,10.10
2019-03-18T16:32:50.203Z,10.00
2019-03-18T16:35:15.546Z,9.90
2019-03-18T16:37:35.798Z,9.80
2019-03-18T16:39:57.000Z,9.70
2019-03-18T16:42:18.218Z,9.50
2019-03-18T16:44:39.538Z,9.30
2019-03-18T16:47:00.734Z,9.20
2019-03-18T16:49:22.019Z,9.10
2019-03-18T16:51:43.292Z,9.00
2019-03-18T16:54:04.496Z,8.90
2019-03-18T16:56:25.773Z,8.80
2019-03-18T16:58:47.034Z,8.70
2019-03-18T17:01:08.223Z,8.70
2019-03-18T17:03:29.434Z,8.60
2019-03-18T17:05:51.734Z,8.50
2019-03-18T17:08:12.997Z,8.50
2019-03-18T17:10:34.370Z,8.50
2019-03-18T17:12:55.586Z,8.50
2019-03-18T17:15:18.405Z,8.40
2019-03-18T17:17:39.601Z,8.40
2019-03-18T17:20:00.809Z,8.30
2019-03-18T17:22:21.997Z,8.30
2019-03-18T17:24:43.201Z,8.30
2019-03-18T17:27:04.398Z,8.30
2019-03-18T17:29:25.706Z,8.30
2019-03-18T17:31:46.916Z,8.20
2019-03-18T17:34:08.117Z,8.20
2019-03-18T17:36:29.326Z,8.20
2019-03-18T17:38:50.531Z,8.20
2019-03-18T17:41:12.160Z,8.20
2019-03-18T17:43:33.364Z,8.30
2019-03-18T17:45:54.557Z,8.30
2019-03-18T17:48:15.775Z,8.20
2019-03-18T17:50:36.957Z,8.20
2019-03-18T17:53:03.055Z,8.20
2019-03-18T17:55:21.444Z,8.20
2019-03-18T17:57:42.687Z,8.20
2019-03-18T18:00:07.710Z,8.20
2019-03-18T18:02:29.162Z,8.10
2019-03-18T18:05:02.071Z,8.10
2019-03-18T18:07:13.558Z,8.00
2019-03-18T18:09:34.768Z,8.00
2019-03-18T18:11:56.050Z,7.90
2019-03-18T18:14:17.283Z,7.90
2019-03-18T18:16:38.575Z,7.90
2019-03-18T18:18:59.786Z,7.90
2019-03-18T18:21:21.286Z,7.80
2019-03-18T18:23:42.507Z,7.80
2019-03-18T18:26:03.798Z,7.70
2019-03-18T18:28:24.996Z,7.50
2019-03-18T18:30:46.185Z,7.40
2019-03-18T18:33:08.094Z,7.40
2019-03-18T18:35:29.725Z,7.30
2019-03-18T18:37:50.933Z,7.20
2019-03-18T18:40:20.509Z,7.10
2019-03-18T18:42:41.708Z,6.90
2019-03-18T18:45:05.338Z,6.90
2019-03-18T18:47:26.525Z,6.80
2019-03-18T18:49:47.739Z,6.80
2019-03-18T18:52:08.985Z,6.70
2019-03-18T18:54:30.191Z,6.60
2019-03-18T18:56:51.373Z,6.60
2019-03-18T18:59:12.589Z,6.60
2019-03-18T19:01:33.816Z,6.50
2019-03-18T19:03:55.145Z,6.40
2019-03-18T19:06:16.346Z,6.40
2019-03-18T19:08:37.634Z,6.40
2019-03-18T19:11:00.137Z,6.40
2019-03-18T19:13:21.405Z,6.40
2019-03-18T19:15:43.603Z,6.30
2019-03-18T19:18:04.802Z,6.40
2019-03-18T19:20:26.001Z,6.40
2019-03-18T19:22:47.229Z,6.40
2019-03-18T19:25:11.509Z,6.30
2019-03-18T19:27:32.718Z,6.30
2019-03-18T19:29:53.925Z,6.30
2019-03-18T19:32:15.149Z,6.30
2019-03-18T19:34:36.393Z,6.30
2019-03-18T19:36:57.573Z,6.40
2019-03-18T19:39:18.765Z,6.40
2019-03-18T19:41:40.325Z,6.40
2019-03-18T19:44:01.976Z,6.30
2019-03-18T19:46:23.441Z,6.20
2019-03-18T19:48:44.631Z,6.10
2019-03-18T19:51:05.946Z,6.10
2019-03-18T19:53:28.121Z,6.00
2019-03-18T19:55:49.403Z,6.00
2019-03-18T19:58:10.639Z,5.90
2019-03-18T20:00:31.850Z,5.90
2019-03-18T20:02:56.655Z,5.90
2019-03-18T20:05:19.089Z,5.90
2019-03-18T20:07:40.878Z,5.90
2019-03-18T20:10:04.911Z,5.80
2019-03-18T20:12:28.041Z,5.70
2019-03-18T20:14:49.266Z,5.70
2019-03-18T20:17:12.481Z,5.60
2019-03-18T20:19:35.762Z,5.60
2019-03-18T20:21:58.003Z,5.50
2019-03-18T20:24:19.304Z,5.50
2019-03-18T20:26:40.516Z,5.50
2019-03-18T20:29:01.719Z,5.50
2019-03-18T20:31:25.973Z,5.40
2019-03-18T20:33:46.089Z,5.30
2019-03-18T20:36:17.688Z,5.20
2019-03-18T20:38:44.016Z,5.20
2019-03-18T20:41:05.230Z,5.10
2019-03-18T20:43:29.974Z,5.10
2019-03-18T20:45:52.697Z,5.00
2019-03-18T20:48:13.888Z,5.00
2019-03-18T20:50:35.333Z,4.90
2019-03-18T20:52:56.730Z,4.80
2019-03-18T20:55:19.291Z,4.80
2019-03-18T20:57:43.263Z,4.70
2019-03-18T21:00:18.393Z,4.80
2019-03-18T21:02:40.019Z,4.70
2019-03-18T21:05:01.259Z,4.60
2019-03-18T21:07:22.617Z,4.60
2019-03-18T21:09:43.895Z,4.70
2019-03-18T21:12:05.127Z,4.70
2019-03-18T21:14:26.473Z,4.70
2019-03-18T21:16:47.803Z,4.70
2019-03-18T21:19:09.030Z,4.80
2019-03-18T21:21:32.188Z,4.90
2019-03-18T21:23:53.497Z,4.80
2019-03-18T21:26:14.789Z,4.70
2019-03-18T21:28:41.113Z,4.80
2019-03-18T21:31:02.416Z,4.80
2019-03-18T21:33:28.027Z,4.70
2019-03-18T21:35:47.231Z,4.60
2019-03-18T21:38:09.734Z,4.70
2019-03-18T21:40:32.922Z,4.70
2019-03-18T21:42:55.539Z,4.70
2019-03-18T21:45:18.068Z,4.70
2019-03-18T21:47:43.086Z,4.70
2019-03-18T21:50:09.157Z,4.70
2019-03-18T21:52:30.371Z,4.70
2019-03-18T21:54:51.647Z,4.60
2019-03-18T21:57:12.898Z,4.70
2019-03-18T21:59:36.718Z,4.60
2019-03-18T22:01:57.968Z,4.60
2019-03-18T22:04:19.215Z,4.50
2019-03-18T22:06:41.450Z,4.60
2019-03-18T22:09:05.425Z,4.60
2019-03-18T22:11:26.836Z,4.50
2019-03-18T22:13:48.397Z,4.50
2019-03-18T22:16:09.661Z,4.40
2019-03-18T22:18:30.964Z,4.40
2019-03-18T22:20:52.335Z,4.40
2019-03-18T22:23:13.971Z,4.50
2019-03-18T22:25:35.311Z,4.50
2019-03-18T22:27:57.339Z,4.50
2019-03-18T22:30:20.969Z,4.60
2019-03-18T22:32:43.046Z,4.40
2019-03-18T22:35:08.834Z,4.40
2019-03-18T22:37:31.941Z,4.40
2019-03-18T22:39:59.219Z,4.40
2019-03-18T22:42:20.417Z,4.40
2019-03-18T22:44:41.610Z,4.40
2019-03-18T22:47:06.822Z,4.40
2019-03-18T22:49:28.031Z,4.50
2019-03-18T22:51:51.180Z,4.40
2019-03-18T22:54:24.708Z,4.40
2019-03-18T22:56:37.438Z,4.40
2019-03-18T22:59:00.907Z,4.40
2019-03-18T23:01:22.591Z,4.50
2019-03-18T23:03:43.802Z,4.50
2019-03-18T23:06:09.884Z,4.50
2019-03-18T23:08:33.041Z,4.50
2019-03-18T23:10:54.238Z,4.50
2019-03-18T23:13:15.463Z,4.60
2019-03-18T23:15:38.198Z,4.50
2019-03-18T23:18:00.581Z,4.60
2019-03-18T23:20:22.932Z,4.50
2019-03-18T23:22:44.186Z,4.60
2019-03-18T23:25:07.643Z,4.60
2019-03-18T23:27:29.530Z,4.60
2019-03-18T23:29:50.873Z,4.50
2019-03-18T23:32:12.077Z,4.60
2019-03-18T23:34:33.398Z,4.80
2019-03-18T23:36:54.603Z,4.80
2019-03-18T23:39:15.827Z,4.80
2019-03-18T23:41:38.930Z,4.80
2019-03-18T23:44:00.139Z,4.80
2019-03-18T23:46:21.327Z,4.80
2019-03-18T23:48:42.525Z,4.60
2019-03-18T23:51:03.715Z,4.60
2019-03-18T23:53:24.921Z,4.50
2019-03-18T23:55:46.107Z,4.40
2019-03-18T23:58:07.350Z,4.40
